Time;durP1;ratioP1;P1;durP2;ratioP2;P2;SDS_P1;SDS_P2;PMS_P1;PMS_P2;Temp;Humidity;BMP_temperature;BMP_pressure;BME280_temperature;BME280_humidity;BME280_pressure;Samples;Min_cycle;Max_cycle;Signal;HPM_P1;HPM_P2
2022/05/09 00:02:23;;;;;;;10.40;9.47;;;14.60;99.90;;;;;;5134084;28;20962;-57
2022/05/09 00:04:52;;;;;;;10.37;9.37;;;;;;;;;;5134443;28;20448;-58
2022/05/09 00:07:19;;;;;;;10.27;9.30;;;14.40;99.90;;;;;;5133983;28;20453;-58
2022/05/09 00:09:46;;;;;;;11.00;10.00;;;14.40;99.90;;;;;;5134307;28;20522;-58
2022/05/09 00:12:13;;;;;;;11.83;10.73;;;14.50;99.90;;;;;;5133848;28;20442;-58
2022/05/09 00:14:41;;;;;;;11.23;10.23;;;14.50;99.90;;;;;;5134066;28;20452;-58
2022/05/09 00:17:08;;;;;;;11.50;10.47;;;14.50;99.90;;;;;;5134194;28;20442;-58
2022/05/09 00:19:35;;;;;;;11.33;10.10;;;14.30;99.90;;;;;;5134132;28;20491;-58
2022/05/09 00:22:04;;;;;;;12.23;11.07;;;14.30;99.90;;;;;;5133918;28;20442;-58
2022/05/09 00:24:31;;;;;;;11.87;10.73;;;14.30;99.90;;;;;;5133897;28;20979;-59
2022/05/09 00:26:58;;;;;;;13.07;10.40;;;14.20;99.90;;;;;;5134213;28;20448;-58
2022/05/09 00:29:26;;;;;;;13.47;12.07;;;14.20;99.90;;;;;;5134123;28;20548;-58
2022/05/09 00:31:56;;;;;;;13.97;11.27;;;14.20;99.90;;;;;;5133928;28;20424;-59
2022/05/09 00:34:24;;;;;;;12.43;11.20;;;14.20;99.90;;;;;;5134093;28;20461;-59
2022/05/09 00:36:55;;;;;;;11.47;10.20;;;14.20;99.90;;;;;;5134107;28;20533;-58
2022/05/09 00:39:24;;;;;;;11.57;10.47;;;14.10;99.90;;;;;;5133694;28;20481;-59
2022/05/09 00:41:51;;;;;;;12.03;10.93;;;14.10;99.90;;;;;;5134072;28;20442;-58
2022/05/09 00:44:22;;;;;;;12.87;11.43;;;14.10;99.90;;;;;;5133754;28;20448;-59
2022/05/09 00:46:51;;;;;;;12.47;11.27;;;14.10;99.90;;;;;;5134008;28;20780;-59
2022/05/09 00:49:24;;;;;;;12.60;11.50;;;14.00;99.90;;;;;;5133979;28;20473;-59
2022/05/09 00:51:57;;;;;;;12.77;11.57;;;14.00;99.90;;;;;;5136849;27;20427;-58
2022/05/09 00:54:29;;;;;;;12.20;10.93;;;14.00;99.90;;;;;;5137717;27;20432;-59
2022/05/09 00:57:02;;;;;;;12.10;11.00;;;14.00;99.90;;;;;;5137378;27;20517;-58
2022/05/09 00:59:31;;;;;;;11.70;10.33;;;14.00;99.90;;;;;;5137639;27;20491;-59
2022/05/09 01:01:58;;;;;;;12.00;10.57;;;14.10;99.90;;;;;;5137272;27;20441;-58
2022/05/09 01:04:27;;;;;;;11.17;10.07;;;14.00;99.90;;;;;;5137629;27;20438;-59
2022/05/09 01:06:55;;;;;;;11.70;10.57;;;13.80;99.90;;;;;;5137152;27;20946;-59
2022/05/09 01:09:23;;;;;;;13.43;11.17;;;13.70;99.90;;;;;;5137181;27;20869;-59
2022/05/09 01:11:51;;;;;;;12.13;10.93;;;13.70;99.90;;;;;;5137322;27;20450;-59
2022/05/09 01:14:21;;;;;;;12.73;11.10;;;13.70;99.90;;;;;;5137459;27;20482;-58
2022/05/09 01:16:49;;;;;;;11.67;10.50;;;13.60;99.90;;;;;;5136926;27;20484;-58
2022/05/09 01:19:28;;;;;;;11.70;10.50;;;13.50;99.90;;;;;;5137232;27;21013;-58
2022/05/09 01:21:57;;;;;;;11.63;9.97;;;13.50;99.90;;;;;;5136901;27;20435;-58
2022/05/09 01:24:26;;;;;;;11.13;9.97;;;13.60;99.90;;;;;;5137200;27;20450;-58
2022/05/09 01:26:54;;;;;;;12.27;11.07;;;13.60;99.90;;;;;;5137084;27;20448;-59
2022/05/09 01:29:31;;;;;;;12.10;11.03;;;13.70;99.90;;;;;;5136867;27;20467;-59
2022/05/09 01:31:59;;;;;;;10.50;9.60;;;13.60;99.90;;;;;;5137158;27;20426;-59
2022/05/09 01:34:28;;;;;;;10.27;9.27;;;13.50;99.90;;;;;;5136692;27;20426;-58
2022/05/09 01:37:04;;;;;;;11.93;10.73;;;13.60;99.90;;;;;;5137026;27;20442;-58
2022/05/09 01:39:32;;;;;;;10.80;9.80;;;13.60;99.90;;;;;;5136756;27;20858;-58
2022/05/09 01:42:04;;;;;;;11.40;10.30;;;13.70;99.90;;;;;;5136639;27;20450;-58
2022/05/09 01:44:32;;;;;;;12.00;10.90;;;13.70;99.90;;;;;;5136776;27;20440;-59
2022/05/09 01:49:43;;;;;;;12.23;11.03;;;13.60;99.90;;;;;;5136888;27;20993;-58
2022/05/09 01:52:15;;;;;;;11.93;10.73;;;13.50;99.90;;;;;;5136709;27;20446;-58
2022/05/09 01:54:43;;;;;;;12.30;11.10;;;13.50;99.90;;;;;;5136325;27;20434;-58
2022/05/09 01:57:10;;;;;;;12.53;11.33;;;13.50;99.90;;;;;;5136609;27;20461;-58
2022/05/09 01:59:38;;;;;;;12.87;11.67;;;13.50;99.90;;;;;;5136138;27;21003;-58
2022/05/09 02:02:11;;;;;;;13.87;12.57;;;13.50;99.90;;;;;;5135786;27;20809;-58
2022/05/09 02:04:40;;;;;;;15.07;13.37;;;13.40;99.90;;;;;;5136518;27;20924;-58
2022/05/09 02:07:09;;;;;;;13.40;12.17;;;13.40;99.90;;;;;;5136281;27;20449;-58
2022/05/09 02:09:40;;;;;;;13.20;12.00;;;13.30;99.90;;;;;;5135988;27;20502;-58
2022/05/09 02:12:08;;;;;;;13.20;12.00;;;13.30;99.90;;;;;;5136189;27;20453;-58
2022/05/09 02:14:36;;;;;;;13.13;11.67;;;13.20;99.90;;;;;;5136292;27;20452;-59
2022/05/09 02:17:03;;;;;;;13.60;12.30;;;13.10;99.90;;;;;;5136106;27;20437;-58
2022/05/09 02:19:31;;;;;;;12.73;11.53;;;13.10;99.90;;;;;;5136004;27;21058;-59
2022/05/09 02:21:59;;;;;;;11.43;10.33;;;13.20;99.90;;;;;;5135996;27;20442;-58
2022/05/09 02:24:27;;;;;;;12.07;10.97;;;13.20;99.90;;;;;;5135972;27;20503;-58
2022/05/09 02:26:56;;;;;;;12.27;11.07;;;12.90;99.90;;;;;;5135747;27;20442;-58
2022/05/09 02:29:24;;;;;;;13.10;10.63;;;12.90;99.90;;;;;;5134278;27;20469;-58
2022/05/09 02:31:51;;;;;;;12.57;11.50;;;13.00;99.90;;;;;;5135882;27;20936;-58
2022/05/09 02:34:19;;;;;;;12.57;11.33;;;12.90;99.90;;;;;;5135868;27;20468;-58
2022/05/09 02:36:46;;;;;;;11.90;10.83;;;12.90;99.90;;;;;;5135539;27;20449;-59
2022/05/09 02:39:13;;;;;;;12.27;11.10;;;13.10;99.90;;;;;;5135647;27;20474;-58
2022/05/09 02:41:41;;;;;;;13.50;11.87;;;13.10;99.90;;;;;;5135374;27;21011;-58
2022/05/09 02:44:09;;;;;;;12.67;11.37;;;13.10;99.90;;;;;;5135222;27;20495;-58
2022/05/09 02:46:37;;;;;;;12.30;11.00;;;13.00;99.90;;;;;;5135336;27;20958;-58
2022/05/09 02:49:04;;;;;;;12.60;11.10;;;12.90;99.90;;;;;;5135290;27;20469;-58
2022/05/09 02:51:31;;;;;;;13.00;11.80;;;12.90;99.90;;;;;;5135571;27;20444;-57
2022/05/09 02:53:59;;;;;;;16.87;10.60;;;12.90;99.90;;;;;;5135399;27;20452;-57
2022/05/09 02:56:26;;;;;;;11.40;10.20;;;12.90;99.90;;;;;;5135112;27;20445;-57
2022/05/09 02:58:54;;;;;;;11.40;10.17;;;12.90;99.90;;;;;;5135221;27;20468;-57
2022/05/09 03:01:22;;;;;;;12.77;11.47;;;12.80;99.90;;;;;;5135025;27;20473;-58
2022/05/09 03:06:43;;;;;;;11.50;10.43;;;12.80;99.90;;;;;;5098042;27;20435;-58
2022/05/09 03:09:10;;;;;;;12.33;11.17;;;12.80;99.90;;;;;;5134901;27;20457;-58
2022/05/09 03:11:37;;;;;;;12.03;10.93;;;12.80;99.90;;;;;;5135028;27;20510;-59
2022/05/09 03:14:05;;;;;;;12.70;11.40;;;12.70;99.90;;;;;;5135116;27;20441;-59
2022/05/09 03:16:34;;;;;;;12.43;11.23;;;12.80;99.90;;;;;;5134663;27;20935;-58
2022/05/09 03:19:01;;;;;;;13.50;12.30;;;12.80;99.90;;;;;;5135226;27;20485;-58
2022/05/09 03:21:28;;;;;;;12.90;11.53;;;12.80;99.90;;;;;;5134525;27;20482;-59
2022/05/09 03:23:55;;;;;;;14.40;12.27;;;12.80;99.90;;;;;;5134951;27;20445;-58
2022/05/09 03:26:22;;;;;;;12.30;11.10;;;12.70;99.90;;;;;;5134421;27;20932;-58
2022/05/09 03:28:49;;;;;;;13.00;11.80;;;12.60;99.90;;;;;;5134583;27;20978;-58
2022/05/09 03:31:17;;;;;;;13.90;12.60;;;12.60;99.90;;;;;;5134480;27;20480;-58
2022/05/09 03:33:45;;;;;;;12.63;11.37;;;12.50;99.90;;;;;;5134729;27;20442;-58
2022/05/09 03:36:13;;;;;;;13.90;12.67;;;12.50;99.90;;;;;;5134429;27;20936;-58
2022/05/09 03:38:40;;;;;;;12.47;11.27;;;12.60;99.90;;;;;;5134272;27;20470;-58
2022/05/09 03:41:07;;;;;;;12.60;11.37;;;12.70;99.90;;;;;;5134355;27;20788;-59
2022/05/09 03:43:34;;;;;;;13.30;12.10;;;12.70;99.90;;;;;;5134211;27;20846;-58
2022/05/09 03:46:02;;;;;;;11.80;10.70;;;12.70;99.90;;;;;;5134714;27;20442;-58
2022/05/09 03:48:30;;;;;;;12.57;11.43;;;12.60;99.90;;;;;;5134343;27;20476;-58
2022/05/09 03:51:01;;;;;;;13.03;11.70;;;12.60;99.90;;;;;;5134245;27;20481;-58
2022/05/09 03:53:28;;;;;;;13.67;12.30;;;12.40;99.90;;;;;;5134391;27;20430;-58
2022/05/09 03:55:56;;;;;;;14.17;12.73;;;12.50;99.90;;;;;;5134472;27;20441;-58
2022/05/09 03:58:23;;;;;;;15.90;14.20;;;12.60;99.90;;;;;;5134044;28;20552;-57
2022/05/09 04:00:51;;;;;;;14.40;13.07;;;12.60;99.90;;;;;;5134623;28;20487;-58
2022/05/09 04:03:19;;;;;;;14.47;13.03;;;12.60;99.90;;;;;;5134295;28;20449;-58
2022/05/09 04:05:46;;;;;;;12.97;11.70;;;12.60;99.90;;;;;;5134070;28;20449;-58
2022/05/09 04:08:17;;;;;;;13.17;11.90;;;12.60;99.90;;;;;;5133858;28;20469;-58
2022/05/09 04:10:46;;;;;;;13.80;12.50;;;12.60;99.90;;;;;;5134394;28;20813;-58
2022/05/09 04:13:13;;;;;;;13.43;12.17;;;12.70;99.90;;;;;;5133962;28;20453;-58
2022/05/09 04:18:29;;;;;;;13.10;11.80;;;12.70;99.90;;;;;;5134089;28;20448;-59
2022/05/09 04:20:56;;;;;;;14.40;12.90;;;12.70;99.90;;;;;;5133767;28;20972;-58
2022/05/09 04:23:25;;;;;;;13.60;12.33;;;12.60;99.90;;;;;;5134540;28;20526;-58
2022/05/09 04:25:52;;;;;;;14.23;12.73;;;12.60;99.90;;;;;;5135472;27;20450;-58
2022/05/09 04:28:22;;;;;;;13.47;12.10;;;12.60;99.90;;;;;;5137928;27;20461;-58
2022/05/09 04:30:50;;;;;;;12.60;11.30;;;12.70;99.90;;;;;;5137810;27;20833;-58
2022/05/09 04:33:17;;;;;;;12.97;11.80;;;12.70;99.90;;;;;;5138282;27;20520;-58
2022/05/09 04:35:45;;;;;;;13.37;12.10;;;12.80;99.90;;;;;;5137899;27;20449;-58
2022/05/09 04:38:16;;;;;;;14.47;12.87;;;12.80;99.90;;;;;;5138163;27;20468;-58
2022/05/09 04:40:45;;;;;;;15.87;13.03;;;12.70;99.90;;;;;;5137899;27;20523;-58
2022/05/09 04:43:12;;;;;;;13.13;11.93;;;12.70;99.90;;;;;;5138076;27;20571;-58
2022/05/09 04:45:41;;;;;;;12.90;11.60;;;12.80;99.90;;;;;;5137730;27;20804;-58
2022/05/09 04:48:08;;;;;;;13.17;10.83;;;12.80;99.90;;;;;;5137843;27;20841;-58
2022/05/09 04:50:36;;;;;;;14.90;12.30;;;12.80;99.90;;;;;;5137873;27;20414;-58
2022/05/09 04:53:03;;;;;;;14.10;12.87;;;12.80;99.90;;;;;;5137459;27;20927;-58
2022/05/09 04:55:31;;;;;;;14.20;12.83;;;12.80;99.90;;;;;;5137865;27;20449;-59
2022/05/09 04:57:59;;;;;;;13.70;12.30;;;12.80;99.90;;;;;;5137539;27;20471;-58
2022/05/09 05:00:27;;;;;;;12.97;11.67;;;12.80;99.90;;;;;;5137522;27;20441;-58
2022/05/09 05:02:56;;;;;;;13.77;12.00;;;12.80;99.90;;;;;;5137170;27;20502;-58
2022/05/09 05:05:25;;;;;;;15.33;11.10;;;12.80;99.90;;;;;;5137530;27;20441;-58
2022/05/09 05:07:52;;;;;;;13.93;12.53;;;12.90;99.90;;;;;;5137385;27;20449;-58
2022/05/09 05:10:20;;;;;;;12.43;11.33;;;12.90;99.90;;;;;;5137144;27;20912;-58
2022/05/09 05:12:48;;;;;;;13.37;11.63;;;13.10;99.90;;;;;;5137337;27;20544;-60
2022/05/09 05:15:17;;;;;;;15.50;12.90;;;13.00;99.90;;;;;;5137273;27;20469;-58
2022/05/09 05:17:44;;;;;;;13.70;12.43;;;13.10;99.90;;;;;;5136855;27;20893;-58
2022/05/09 05:20:14;;;;;;;14.10;12.63;;;13.10;99.90;;;;;;5137498;27;20449;-58
2022/05/09 05:22:43;;;;;;;17.20;12.60;;;13.20;99.90;;;;;;5136772;27;20485;-58
2022/05/09 05:25:12;;;;;;;13.50;12.10;;;13.20;99.90;;;;;;5136798;27;20536;-58
2022/05/09 05:27:40;;;;;;;12.73;11.63;;;13.30;99.90;;;;;;5136652;27;20438;-58
2022/05/09 05:30:09;;;;;;;14.60;13.10;;;13.30;99.90;;;;;;5136632;27;20487;-58
2022/05/09 05:32:41;;;;;;;14.60;13.10;;;13.30;99.90;;;;;;5136777;27;20446;-58
2022/05/09 05:35:11;;;;;;;15.00;13.50;;;13.40;99.90;;;;;;5137056;27;20422;-58
2022/05/09 05:37:38;;;;;;;15.00;13.30;;;13.50;99.90;;;;;;5134872;27;20548;-58
2022/05/09 05:40:07;;;;;;;15.80;13.50;;;13.50;99.90;;;;;;5136798;27;20449;-57
2022/05/09 05:42:34;;;;;;;14.77;13.37;;;13.60;99.90;;;;;;5136233;27;20874;-58
2022/05/09 05:45:02;;;;;;;15.10;13.40;;;13.70;99.90;;;;;;5136663;27;20490;-58
2022/05/09 05:47:29;;;;;;;14.30;13.00;;;13.80;99.90;;;;;;5136301;27;20462;-58
2022/05/09 05:49:58;;;;;;;15.60;14.03;;;13.90;99.90;;;;;;5136773;27;20476;-58
2022/05/09 05:52:25;;;;;;;17.50;14.27;;;13.90;99.90;;;;;;5136464;27;20442;-58
2022/05/09 05:54:52;;;;;;;16.57;14.80;;;14.00;99.90;;;;;;5136428;27;20532;-57
2022/05/09 05:57:26;;;;;;;15.37;13.87;;;14.00;99.90;;;;;;5136135;27;20453;-57
2022/05/09 05:59:55;;;;;;;16.23;13.60;;;14.10;99.90;;;;;;5136385;27;20468;-58
2022/05/09 06:02:23;;;;;;;14.97;13.20;;;14.20;99.90;;;;;;5136223;27;20513;-58
2022/05/09 06:04:50;;;;;;;14.93;13.27;;;14.30;99.90;;;;;;5136300;27;20524;-58
2022/05/09 06:07:20;;;;;;;17.33;13.70;;;14.40;99.90;;;;;;5135874;27;20928;-58
2022/05/09 06:09:49;;;;;;;12.80;11.60;;;14.40;99.90;;;;;;5136014;27;20553;-58
2022/05/09 06:12:19;;;;;;;13.90;12.70;;;14.40;99.90;;;;;;5136043;27;20445;-58
2022/05/09 06:15:24;;;;;;;14.63;13.23;;;14.50;99.90;;;;;;5135834;27;20897;-59
2022/05/09 06:17:35;;;;;;;14.70;13.30;;;14.50;99.90;;;;;;5135801;27;20434;-58
2022/05/09 06:20:02;;;;;;;14.10;12.80;;;14.60;99.90;;;;;;5136159;27;20510;-58
2022/05/09 06:22:31;;;;;;;17.27;11.97;;;14.70;99.90;;;;;;5135681;27;20482;-59
2022/05/09 06:24:59;;;;;;;12.37;11.27;;;14.80;99.90;;;;;;5135652;27;20441;-58
2022/05/09 06:27:27;;;;;;;14.83;12.00;;;14.80;99.90;;;;;;5136063;27;20460;-58
2022/05/09 06:29:54;;;;;;;13.97;12.27;;;14.80;99.90;;;;;;5135265;27;20481;-57
2022/05/09 06:32:25;;;;;;;13.13;11.83;;;14.80;99.90;;;;;;5135917;27;20441;-58
2022/05/09 06:34:53;;;;;;;13.53;12.23;;;14.80;99.90;;;;;;5135552;27;20454;-57
2022/05/09 06:37:20;;;;;;;17.93;12.30;;;14.80;99.90;;;;;;5135284;27;20457;-58
2022/05/09 06:39:49;;;;;;;11.83;10.73;;;14.90;99.90;;;;;;5135405;27;20497;-57
2022/05/09 06:42:16;;;;;;;11.80;10.70;;;14.90;99.90;;;;;;5135462;27;20509;-58
2022/05/09 06:44:43;;;;;;;12.83;11.50;;;14.90;99.90;;;;;;5135384;27;20441;-58
2022/05/09 06:47:13;;;;;;;12.13;10.93;;;14.90;99.90;;;;;;5135050;27;20448;-57
2022/05/09 06:49:40;;;;;;;12.87;11.67;;;15.00;99.90;;;;;;5134792;27;20473;-59
2022/05/09 06:52:08;;;;;;;13.77;12.33;;;15.20;99.90;;;;;;5135322;27;20529;-58
2022/05/09 06:54:35;;;;;;;14.30;11.67;;;15.40;99.90;;;;;;5134613;27;20932;-58
2022/05/09 06:57:04;;;;;;;13.27;11.97;;;15.50;99.90;;;;;;5135180;27;20541;-58
2022/05/09 06:59:32;;;;;;;13.20;11.90;;;15.50;99.90;;;;;;5134944;27;20493;-58
2022/05/09 07:02:00;;;;;;;12.50;11.30;;;15.60;99.90;;;;;;5135301;27;20477;-58
2022/05/09 07:04:27;;;;;;;12.23;11.10;;;15.60;99.90;;;;;;5134909;27;21021;-58
2022/05/09 07:06:54;;;;;;;12.73;11.50;;;15.70;99.90;;;;;;5134930;27;20456;-57
2022/05/09 07:09:21;;;;;;;13.57;12.17;;;15.70;99.90;;;;;;5134460;27;20465;-58
2022/05/09 07:11:50;;;;;;;13.50;12.10;;;15.70;99.90;;;;;;5134832;27;20437;-57
2022/05/09 07:14:18;;;;;;;13.33;11.77;;;15.80;99.90;;;;;;5134545;27;20499;-58
2022/05/09 07:16:45;;;;;;;12.73;11.43;;;16.00;99.90;;;;;;5135173;27;20441;-57
2022/05/09 07:19:13;;;;;;;11.90;10.90;;;16.00;99.90;;;;;;5134754;27;20493;-60
2022/05/09 07:21:43;;;;;;;12.73;11.33;;;16.00;99.90;;;;;;5134891;27;20473;-58
2022/05/09 07:24:11;;;;;;;12.50;11.30;;;16.10;99.90;;;;;;5134743;27;20920;-59
2022/05/09 07:26:39;;;;;;;11.70;10.67;;;16.10;99.90;;;;;;5134393;27;20498;-58
2022/05/09 07:29:07;;;;;;;14.00;12.60;;;16.20;99.90;;;;;;5133991;27;20472;-57
2022/05/09 07:31:35;;;;;;;12.03;10.83;;;16.10;99.90;;;;;;5133979;27;20481;-57
2022/05/09 07:34:03;;;;;;;13.57;12.37;;;16.20;99.90;;;;;;5134113;27;20442;-57
2022/05/09 07:36:30;;;;;;;10.73;9.83;;;16.30;99.90;;;;;;5133930;27;20442;-58
2022/05/09 07:38:57;;;;;;;11.83;10.70;;;16.60;99.90;;;;;;5133468;27;20462;-58
2022/05/09 07:41:24;;;;;;;12.43;11.00;;;17.20;99.90;;;;;;5134111;27;20636;-58
2022/05/09 07:43:51;;;;;;;12.50;11.20;;;18.00;99.90;;;;;;5134185;27;20446;-57
2022/05/09 07:46:19;;;;;;;10.00;9.00;;;18.80;99.90;;;;;;5133795;27;20803;-58
2022/05/09 07:48:48;;;;;;;12.47;11.27;;;19.60;99.90;;;;;;5134212;27;20484;-58
2022/05/09 07:51:15;;;;;;;11.97;9.57;;;20.00;99.90;;;;;;5134163;27;20452;-58
2022/05/09 07:53:43;;;;;;;10.13;9.03;;;20.60;99.90;;;;;;5134312;27;20441;-57
2022/05/09 07:56:10;;;;;;;10.50;8.30;;;20.90;99.90;;;;;;5133994;27;20449;-58
2022/05/09 07:58:38;;;;;;;9.47;8.67;;;20.70;99.90;;;;;;5134254;28;20463;-58
2022/05/09 08:01:06;;;;;;;9.93;8.97;;;20.60;99.90;;;;;;5132712;27;20473;-58
2022/05/09 08:03:37;;;;;;;9.00;8.30;;;20.60;99.90;;;;;;5133890;28;20767;-57
2022/05/09 08:06:06;;;;;;;9.20;8.30;;;20.90;99.90;;;;;;5133854;28;20557;-58
2022/05/09 08:08:36;;;;;;;9.80;8.80;;;21.70;99.90;;;;;;5133815;28;20472;-58
2022/05/09 08:11:04;;;;;;;8.90;8.10;;;21.80;99.90;;;;;;5133597;28;20438;-57
2022/05/09 08:13:34;;;;;;;9.30;8.40;;;22.30;99.90;;;;;;5133732;28;20430;-58
2022/05/09 08:16:03;;;;;;;9.83;8.63;;;23.10;99.90;;;;;;5134285;28;20537;-58
2022/05/09 08:18:31;;;;;;;9.00;8.30;;;23.80;99.90;;;;;;5133979;28;20474;-58
2022/05/09 08:20:59;;;;;;;9.37;8.47;;;23.70;99.90;;;;;;5133975;28;20430;-58
2022/05/09 08:23:30;;;;;;;9.47;8.57;;;24.00;99.90;;;;;;5133921;28;20485;-57
2022/05/09 08:25:58;;;;;;;8.60;7.80;;;24.10;99.90;;;;;;5133470;28;20434;-58
2022/05/09 08:28:25;;;;;;;9.40;8.50;;;23.80;99.90;;;;;;5133975;28;20465;-57
2022/05/09 08:30:54;;;;;;;8.53;7.90;;;24.00;99.90;;;;;;5133435;28;20474;-57
2022/05/09 08:33:25;;;;;;;9.50;8.70;;;24.20;99.90;;;;;;5133522;28;20445;-58
2022/05/09 08:35:54;;;;;;;9.20;8.40;;;24.60;98.70;;;;;;5133441;28;20521;-58
2022/05/09 08:38:22;;;;;;;7.37;6.77;;;;;;;;;;5133658;28;20468;-58
2022/05/09 08:41:08;;;;;;;8.97;7.70;;;24.80;98.70;;;;;;5133278;28;20446;-58
2022/05/09 08:43:56;;;;;;;7.57;6.97;;;25.10;98.10;;;;;;5133467;28;20465;-58
2022/05/09 08:46:32;;;;;;;10.63;9.00;;;25.10;98.40;;;;;;5133747;28;20847;-58
2022/05/09 08:49:18;;;;;;;8.87;8.03;;;24.90;97.00;;;;;;5133679;28;20469;-58
2022/05/09 08:51:55;;;;;;;8.53;7.60;;;23.80;97.20;;;;;;5133475;28;20426;-58
2022/05/09 08:54:23;;;;;;;9.07;8.17;;;25.00;98.60;;;;;;5133712;28;20441;-58
2022/05/09 08:56:56;;;;;;;8.57;7.87;;;25.30;97.30;;;;;;5133220;28;20453;-58
2022/05/09 08:59:28;;;;;;;8.63;7.00;;;25.10;97.50;;;;;;5133228;28;20964;-58
2022/05/09 09:02:00;;;;;;;10.57;7.63;;;25.90;96.80;;;;;;5133502;27;20472;-58
2022/05/09 09:04:31;;;;;;;9.50;7.87;;;25.10;95.60;;;;;;5133473;28;20466;-57
2022/05/09 09:07:20;;;;;;;9.67;7.60;;;25.90;96.60;;;;;;5134007;28;20446;-58
2022/05/09 09:10:02;;;;;;;8.47;7.77;;;25.90;95.10;;;;;;5133609;28;20540;-58
2022/05/09 09:12:41;;;;;;;8.40;7.60;;;25.70;95.10;;;;;;5135225;27;20418;-58
2022/05/09 09:15:13;;;;;;;8.80;8.00;;;25.90;95.20;;;;;;5136888;27;20461;-59
2022/05/09 09:18:01;;;;;;;8.13;7.43;;;26.00;94.90;;;;;;5137153;27;20426;-58
2022/05/09 09:20:33;;;;;;;8.20;7.43;;;26.10;95.50;;;;;;5136686;27;20456;-59
2022/05/09 09:23:15;;;;;;;10.40;9.40;;;26.00;94.90;;;;;;5136635;27;20553;-58
2022/05/09 09:25:52;;;;;;;8.87;8.17;;;25.70;94.90;;;;;;5136478;27;20430;-58
2022/05/09 09:28:28;;;;;;;8.83;7.93;;;26.00;96.00;;;;;;5136630;27;20808;-59
2022/05/09 09:30:56;;;;;;;8.40;6.80;;;26.00;94.60;;;;;;5136280;27;20919;-58
2022/05/09 09:33:24;;;;;;;7.80;6.77;;;26.30;93.40;;;;;;5136254;27;20805;-59
2022/05/09 09:35:57;;;;;;;7.67;6.97;;;26.40;93.50;;;;;;5136885;27;20449;-59
2022/05/09 09:38:43;;;;;;;8.03;7.00;;;26.90;92.50;;;;;;5136665;27;20484;-59
2022/05/09 09:41:19;;;;;;;8.47;7.13;;;27.00;92.80;;;;;;5136248;27;20975;-59
2022/05/09 09:43:49;;;;;;;7.60;6.90;;;27.20;92.40;;;;;;5136644;27;20836;-59
2022/05/09 09:46:16;;;;;;;7.80;7.20;;;27.20;91.40;;;;;;5136284;27;20430;-58
2022/05/09 09:48:44;;;;;;;8.47;7.20;;;27.40;91.00;;;;;;5136541;27;20520;-58
2022/05/09 09:51:17;;;;;;;8.07;7.37;;;27.30;90.70;;;;;;5136463;27;20450;-59
2022/05/09 09:54:01;;;;;;;8.10;7.30;;;27.40;91.40;;;;;;5136189;27;20937;-59
2022/05/09 09:56:32;;;;;;;7.90;7.30;;;27.90;90.00;;;;;;5136116;27;20806;-58
2022/05/09 09:59:18;;;;;;;6.63;6.13;;;26.80;91.20;;;;;;5136010;27;20462;-59
2022/05/09 10:02:02;;;;;;;6.80;6.20;;;27.30;89.70;;;;;;5136414;27;20462;-58
2022/05/09 10:04:30;;;;;;;6.63;6.00;;;26.70;89.50;;;;;;5136371;27;20434;-59
2022/05/09 10:07:00;;;;;;;10.63;6.70;;;25.80;90.70;;;;;;5136105;27;20863;-59
2022/05/09 10:09:29;;;;;;;7.63;6.27;;;26.50;90.90;;;;;;5135981;27;20872;-59
2022/05/09 10:12:19;;;;;;;8.47;5.97;;;26.40;89.00;;;;;;5136162;27;20871;-59
2022/05/09 10:14:48;;;;;;;6.40;5.90;;;27.20;84.80;;;;;;5135766;27;20453;-59
2022/05/09 10:17:22;;;;;;;5.93;5.53;;;28.00;84.50;;;;;;5135788;27;20446;-59
2022/05/09 10:19:52;;;;;;;6.63;5.77;;;27.60;86.90;;;;;;5135506;27;20470;-59
2022/05/09 10:25:15;;;;;;;7.27;5.50;;;27.40;86.10;;;;;;5135347;27;20405;-59
2022/05/09 10:27:44;;;;;;;6.57;5.97;;;27.50;81.60;;;;;;5135370;27;20426;-59
2022/05/09 10:33:15;;;;;;;6.20;5.70;;;26.10;85.90;;;;;;5071164;27;20549;-58
2022/05/09 10:35:46;;;;;;;6.13;5.53;;;26.90;83.60;;;;;;5070260;28;20478;-58
2022/05/09 10:38:19;;;;;;;6.17;5.67;;;27.20;84.30;;;;;;5070557;28;20488;-58
2022/05/09 10:40:50;;;;;;;7.20;6.03;;;27.10;84.10;;;;;;5070145;28;20915;-58
2022/05/09 10:43:24;;;;;;;6.50;5.90;;;;;;;;;;5070393;28;20420;-58
2022/05/09 10:45:52;;;;;;;6.83;6.27;;;28.60;80.60;;;;;;5070195;28;20756;-58
2022/05/09 10:48:34;;;;;;;6.33;5.73;;;28.90;82.10;;;;;;5069826;28;21001;-58
2022/05/09 10:51:07;;;;;;;6.70;6.20;;;29.10;80.20;;;;;;5069925;28;20469;-58
2022/05/09 10:53:41;;;;;;;6.20;5.60;;;28.00;77.90;;;;;;5070154;28;20460;-58
2022/05/09 10:56:14;;;;;;;6.80;6.20;;;26.80;82.20;;;;;;5069854;28;20466;-58
2022/05/09 10:58:47;;;;;;;7.37;6.67;;;26.70;83.10;;;;;;5069948;28;20471;-59
2022/05/09 11:01:20;;;;;;;7.30;6.70;;;26.80;83.30;;;;;;5069711;28;20524;-59
2022/05/09 11:03:49;;;;;;;7.30;6.73;;;27.60;81.30;;;;;;5069901;28;20428;-58
2022/05/09 11:06:31;;;;;;;7.07;6.43;;;27.30;81.20;;;;;;5069640;28;20476;-58
2022/05/09 11:09:18;;;;;;;7.67;5.83;;;27.30;82.00;;;;;;5069540;28;20468;-59
2022/05/09 11:11:56;;;;;;;7.97;7.17;;;27.40;83.80;;;;;;5069773;28;20551;-60
2022/05/09 11:14:33;;;;;;;7.23;6.63;;;27.20;85.00;;;;;;5069521;28;20520;-59
2022/05/09 11:17:24;;;;;;;7.07;6.40;;;27.30;83.80;;;;;;5069568;28;20432;-58
2022/05/09 11:20:09;;;;;;;6.73;6.13;;;26.40;84.00;;;;;;5066507;28;20472;-58
2022/05/09 11:22:39;;;;;;;11.33;6.00;;;27.50;84.10;;;;;;5069340;28;20452;-58
2022/05/09 11:25:19;;;;;;;6.97;6.30;;;27.10;80.50;;;;;;5068488;28;20793;-59
2022/05/09 11:27:58;;;;;;;8.27;6.83;;;26.50;81.50;;;;;;5068921;28;20463;-58
2022/05/09 11:30:36;;;;;;;6.93;6.33;;;26.40;80.20;;;;;;5069192;28;20424;-59
2022/05/09 11:33:31;;;;;;;6.23;5.63;;;26.30;82.70;;;;;;5068795;28;20983;-59
2022/05/09 11:36:07;;;;;;;6.30;5.80;;;25.70;81.90;;;;;;5068713;28;20429;-57
2022/05/09 11:38:46;;;;;;;6.60;5.40;;;25.30;84.80;;;;;;5069257;28;20472;-58
2022/05/09 11:41:29;;;;;;;6.53;5.90;;;25.80;81.40;;;;;;5068792;28;20975;-57
2022/05/09 11:44:10;;;;;;;6.63;6.03;;;26.20;82.10;;;;;;5058469;28;20434;-58
2022/05/09 11:46:50;;;;;;;6.30;5.80;;;26.90;80.30;;;;;;5055881;28;20436;-58
2022/05/09 11:49:34;;;;;;;5.67;5.17;;;27.40;78.40;;;;;;5055567;28;20551;-58
2022/05/09 11:52:08;;;;;;;5.70;5.20;;;27.20;76.80;;;;;;5055716;28;20469;-57
2022/05/09 11:54:38;;;;;;;6.13;5.10;;;26.30;77.70;;;;;;5055164;28;20429;-58
2022/05/09 11:57:10;;;;;;;7.40;6.60;;;25.60;75.80;;;;;;5055493;28;20433;-58
2022/05/09 11:59:38;;;;;;;5.73;5.20;;;25.70;79.80;;;;;;5055474;28;20825;-58
2022/05/09 12:02:09;;;;;;;5.67;5.17;;;26.80;78.00;;;;;;5055197;28;20445;-58
2022/05/09 12:04:40;;;;;;;5.80;5.23;;;27.50;78.70;;;;;;5055709;28;20461;-59
2022/05/09 12:07:50;;;;;;;6.43;5.90;;;27.10;75.20;;;;;;5055748;28;20429;-58
2022/05/09 12:10:28;;;;;;;6.10;5.60;;;27.20;76.30;;;;;;5055427;28;20434;-59
2022/05/09 12:12:58;;;;;;;6.67;5.67;;;27.40;73.70;;;;;;5055127;28;20475;-59
2022/05/09 12:15:52;;;;;;;6.30;5.67;;;27.50;72.80;;;;;;5055589;28;20453;-59
2022/05/09 12:18:31;;;;;;;7.93;5.23;;;27.70;73.60;;;;;;5055094;28;20995;-59
2022/05/09 12:21:14;;;;;;;5.53;5.13;;;28.10;72.60;;;;;;5055565;28;20467;-60
2022/05/09 12:24:11;;;;;;;5.63;5.07;;;28.20;71.50;;;;;;5054788;28;20434;-59
2022/05/09 12:26:40;;;;;;;7.80;4.33;;;28.00;70.90;;;;;;5054460;28;20510;-59
2022/05/09 12:29:38;;;;;;;6.20;5.60;;;26.90;69.90;;;;;;5055170;28;20469;-58
2022/05/09 12:32:07;;;;;;;5.90;5.50;;;26.30;73.20;;;;;;4993111;28;20594;-58
2022/05/09 12:34:39;;;;;;;6.00;5.30;;;25.80;71.80;;;;;;5040612;28;20944;-58
2022/05/09 12:37:07;;;;;;;6.07;5.57;;;25.50;72.90;;;;;;5054911;28;20441;-59
2022/05/09 12:39:37;;;;;;;6.43;5.60;;;25.10;74.90;;;;;;5054850;28;20495;-59
2022/05/09 12:42:11;;;;;;;12.37;6.40;;;24.90;76.60;;;;;;5055192;28;20429;-58
2022/05/09 12:44:44;;;;;;;5.77;5.27;;;24.80;74.30;;;;;;5054478;28;20449;-59
2022/05/09 12:47:15;;;;;;;7.10;5.70;;;24.60;74.50;;;;;;5054915;28;20826;-59
2022/05/09 12:49:46;;;;;;;6.17;5.67;;;24.60;77.30;;;;;;5054349;28;20449;-58
2022/05/09 12:52:21;;;;;;;6.47;5.87;;;24.70;76.80;;;;;;5054731;28;20465;-58
2022/05/09 12:57:35;;;;;;;6.03;5.53;;;25.80;74.20;;;;;;5053806;28;20433;-59
2022/05/09 13:00:10;;;;;;;6.50;5.67;;;26.40;75.40;;;;;;5054593;28;20532;-59
2022/05/09 13:02:37;;;;;;;5.90;5.23;;;26.80;73.60;;;;;;5054319;28;20425;-59
2022/05/09 13:05:06;;;;;;;5.57;5.17;;;26.70;72.80;;;;;;5054407;28;20447;-59
2022/05/09 13:07:33;;;;;;;10.53;5.77;;;27.00;74.30;;;;;;5053955;28;20455;-59
2022/05/09 13:10:01;;;;;;;6.10;5.50;;;26.80;71.70;;;;;;5054305;28;20564;-59
2022/05/09 13:12:33;;;;;;;6.83;6.30;;;26.80;70.80;;;;;;5053852;28;20999;-59